sensor_id;sensor_type;location;lat;lon;timestamp;P1;durP1;ratioP1;P2;durP2;ratioP2
69256;SDS011;56376;53.356;-1.748;2023-06-22T00:01:49;4.95;;;4.13;;
69256;SDS011;56376;53.356;-1.748;2023-06-22T00:04:15;4.05;;;3.50;;
69256;SDS011;56376;53.356;-1.748;2023-06-22T00:06:41;4.00;;;3.60;;
69256;SDS011;56376;53.356;-1.748;2023-06-22T00:09:06;3.92;;;3.63;;
69256;SDS011;56376;53.356;-1.748;2023-06-22T00:11:35;5.22;;;3.60;;
69256;SDS011;56376;53.356;-1.748;2023-06-22T00:14:01;4.18;;;3.78;;
69256;SDS011;56376;53.356;-1.748;2023-06-22T00:16:27;3.80;;;3.50;;
69256;SDS011;56376;53.356;-1.748;2023-06-22T00:18:52;4.22;;;3.83;;
69256;SDS011;56376;53.356;-1.748;2023-06-22T00:21:18;4.90;;;3.63;;
69256;SDS011;56376;53.356;-1.748;2023-06-22T00:23:45;4.50;;;4.05;;
69256;SDS011;56376;53.356;-1.748;2023-06-22T00:26:12;4.78;;;4.20;;
69256;SDS011;56376;53.356;-1.748;2023-06-22T00:28:38;4.55;;;4.00;;
69256;SDS011;56376;53.356;-1.748;2023-06-22T00:31:03;4.75;;;3.80;;
69256;SDS011;56376;53.356;-1.748;2023-06-22T00:33:29;4.22;;;3.65;;
69256;SDS011;56376;53.356;-1.748;2023-06-22T00:35:54;5.15;;;3.97;;
69256;SDS011;56376;53.356;-1.748;2023-06-22T00:38:19;4.38;;;3.97;;
69256;SDS011;56376;53.356;-1.748;2023-06-22T00:40:45;4.10;;;3.65;;
69256;SDS011;56376;53.356;-1.748;2023-06-22T00:43:11;4.28;;;3.88;;
69256;SDS011;56376;53.356;-1.748;2023-06-22T00:45:36;4.32;;;3.92;;
69256;SDS011;56376;53.356;-1.748;2023-06-22T00:48:02;3.78;;;3.38;;
69256;SDS011;56376;53.356;-1.748;2023-06-22T00:50:31;4.25;;;3.85;;
69256;SDS011;56376;53.356;-1.748;2023-06-22T00:52:59;3.88;;;3.42;;
69256;SDS011;56376;53.356;-1.748;2023-06-22T00:55:29;4.18;;;3.78;;
69256;SDS011;56376;53.356;-1.748;2023-06-22T00:57:55;4.20;;;3.75;;
69256;SDS011;56376;53.356;-1.748;2023-06-22T01:00:22;4.55;;;4.15;;
69256;SDS011;56376;53.356;-1.748;2023-06-22T01:02:49;5.13;;;3.90;;
69256;SDS011;56376;53.356;-1.748;2023-06-22T01:05:17;4.45;;;3.75;;
69256;SDS011;56376;53.356;-1.748;2023-06-22T01:12:51;4.20;;;3.80;;
69256;SDS011;56376;53.356;-1.748;2023-06-22T01:15:28;4.50;;;4.10;;
69256;SDS011;56376;53.356;-1.748;2023-06-22T01:18:03;4.05;;;3.65;;
69256;SDS011;56376;53.356;-1.748;2023-06-22T01:20:30;4.45;;;3.95;;
69256;SDS011;56376;53.356;-1.748;2023-06-22T01:23:02;3.92;;;3.53;;
69256;SDS011;56376;53.356;-1.748;2023-06-22T01:25:45;4.32;;;3.50;;
69256;SDS011;56376;53.356;-1.748;2023-06-22T01:31:02;4.15;;;3.75;;
69256;SDS011;56376;53.356;-1.748;2023-06-22T01:33:36;3.72;;;3.42;;
69256;SDS011;56376;53.356;-1.748;2023-06-22T01:36:05;4.57;;;4.10;;
69256;SDS011;56376;53.356;-1.748;2023-06-22T01:38:32;4.93;;;4.40;;
69256;SDS011;56376;53.356;-1.748;2023-06-22T01:40:59;3.97;;;3.58;;
69256;SDS011;56376;53.356;-1.748;2023-06-22T01:43:26;4.22;;;3.83;;
69256;SDS011;56376;53.356;-1.748;2023-06-22T01:45:54;3.80;;;3.50;;
69256;SDS011;56376;53.356;-1.748;2023-06-22T01:48:21;3.95;;;3.55;;
69256;SDS011;56376;53.356;-1.748;2023-06-22T01:50:47;3.58;;;3.28;;
69256;SDS011;56376;53.356;-1.748;2023-06-22T01:53:13;4.40;;;4.00;;
69256;SDS011;56376;53.356;-1.748;2023-06-22T01:55:39;4.95;;;4.45;;
69256;SDS011;56376;53.356;-1.748;2023-06-22T01:58:04;6.45;;;4.85;;
69256;SDS011;56376;53.356;-1.748;2023-06-22T02:00:31;3.85;;;3.47;;
69256;SDS011;56376;53.356;-1.748;2023-06-22T02:06:03;3.92;;;3.50;;
69256;SDS011;56376;53.356;-1.748;2023-06-22T02:08:47;4.40;;;4.00;;
69256;SDS011;56376;53.356;-1.748;2023-06-22T02:11:14;4.93;;;4.40;;
69256;SDS011;56376;53.356;-1.748;2023-06-22T02:13:42;4.10;;;3.70;;
69256;SDS011;56376;53.356;-1.748;2023-06-22T02:16:09;4.97;;;4.47;;
69256;SDS011;56376;53.356;-1.748;2023-06-22T02:18:36;4.47;;;3.92;;
69256;SDS011;56376;53.356;-1.748;2023-06-22T02:21:02;4.85;;;3.80;;
69256;SDS011;56376;53.356;-1.748;2023-06-22T02:23:27;4.07;;;3.67;;
69256;SDS011;56376;53.356;-1.748;2023-06-22T02:25:53;4.45;;;4.00;;
69256;SDS011;56376;53.356;-1.748;2023-06-22T02:28:19;6.43;;;4.93;;
69256;SDS011;56376;53.356;-1.748;2023-06-22T02:30:44;5.38;;;4.50;;
69256;SDS011;56376;53.356;-1.748;2023-06-22T02:33:09;4.78;;;4.30;;
69256;SDS011;56376;53.356;-1.748;2023-06-22T02:35:35;5.30;;;4.80;;
69256;SDS011;56376;53.356;-1.748;2023-06-22T02:38:01;4.45;;;4.05;;
69256;SDS011;56376;53.356;-1.748;2023-06-22T02:40:27;3.95;;;3.55;;
69256;SDS011;56376;53.356;-1.748;2023-06-22T02:42:57;4.45;;;4.05;;
69256;SDS011;56376;53.356;-1.748;2023-06-22T02:45:26;3.90;;;3.50;;
69256;SDS011;56376;53.356;-1.748;2023-06-22T02:47:52;4.20;;;3.60;;
69256;SDS011;56376;53.356;-1.748;2023-06-22T02:50:17;4.40;;;3.90;;
69256;SDS011;56376;53.356;-1.748;2023-06-22T02:52:42;3.83;;;3.47;;
69256;SDS011;56376;53.356;-1.748;2023-06-22T02:55:08;4.65;;;4.25;;
69256;SDS011;56376;53.356;-1.748;2023-06-22T02:57:33;4.50;;;4.10;;
69256;SDS011;56376;53.356;-1.748;2023-06-22T02:59:59;4.30;;;3.90;;
69256;SDS011;56376;53.356;-1.748;2023-06-22T03:02:24;3.70;;;3.38;;
69256;SDS011;56376;53.356;-1.748;2023-06-22T03:04:51;4.25;;;3.85;;
69256;SDS011;56376;53.356;-1.748;2023-06-22T03:07:19;4.28;;;3.88;;
69256;SDS011;56376;53.356;-1.748;2023-06-22T03:09:45;4.82;;;4.32;;
69256;SDS011;56376;53.356;-1.748;2023-06-22T03:12:10;4.90;;;4.28;;
69256;SDS011;56376;53.356;-1.748;2023-06-22T03:14:36;5.97;;;4.80;;
69256;SDS011;56376;53.356;-1.748;2023-06-22T03:17:01;4.35;;;3.95;;
69256;SDS011;56376;53.356;-1.748;2023-06-22T03:19:28;4.63;;;4.05;;
69256;SDS011;56376;53.356;-1.748;2023-06-22T03:21:56;4.35;;;3.92;;
69256;SDS011;56376;53.356;-1.748;2023-06-22T03:24:22;4.25;;;3.78;;
69256;SDS011;56376;53.356;-1.748;2023-06-22T03:26:48;4.10;;;3.75;;
69256;SDS011;56376;53.356;-1.748;2023-06-22T03:29:13;5.10;;;4.60;;
69256;SDS011;56376;53.356;-1.748;2023-06-22T03:31:38;4.35;;;3.95;;
69256;SDS011;56376;53.356;-1.748;2023-06-22T03:34:04;4.53;;;3.85;;
69256;SDS011;56376;53.356;-1.748;2023-06-22T03:36:29;4.43;;;4.03;;
69256;SDS011;56376;53.356;-1.748;2023-06-22T03:38:55;4.88;;;4.15;;
69256;SDS011;56376;53.356;-1.748;2023-06-22T03:41:20;4.63;;;4.22;;
69256;SDS011;56376;53.356;-1.748;2023-06-22T03:43:46;4.35;;;3.95;;
69256;SDS011;56376;53.356;-1.748;2023-06-22T03:46:11;4.22;;;3.83;;
69256;SDS011;56376;53.356;-1.748;2023-06-22T03:48:37;5.45;;;4.38;;
69256;SDS011;56376;53.356;-1.748;2023-06-22T03:51:03;4.65;;;4.25;;
69256;SDS011;56376;53.356;-1.748;2023-06-22T03:53:28;5.25;;;4.75;;
69256;SDS011;56376;53.356;-1.748;2023-06-22T03:55:55;4.60;;;4.20;;
69256;SDS011;56376;53.356;-1.748;2023-06-22T03:58:21;4.07;;;3.63;;
69256;SDS011;56376;53.356;-1.748;2023-06-22T04:00:51;4.10;;;3.65;;
69256;SDS011;56376;53.356;-1.748;2023-06-22T04:03:17;4.50;;;4.10;;
69256;SDS011;56376;53.356;-1.748;2023-06-22T04:05:46;3.55;;;3.25;;
69256;SDS011;56376;53.356;-1.748;2023-06-22T04:08:13;4.18;;;3.78;;
69256;SDS011;56376;53.356;-1.748;2023-06-22T04:10:39;3.97;;;3.58;;
69256;SDS011;56376;53.356;-1.748;2023-06-22T04:13:04;3.50;;;3.20;;
69256;SDS011;56376;53.356;-1.748;2023-06-22T04:15:29;4.65;;;4.15;;
69256;SDS011;56376;53.356;-1.748;2023-06-22T04:17:55;4.32;;;3.92;;
69256;SDS011;56376;53.356;-1.748;2023-06-22T04:20:21;3.83;;;3.42;;
69256;SDS011;56376;53.356;-1.748;2023-06-22T04:22:47;4.00;;;3.67;;
69256;SDS011;56376;53.356;-1.748;2023-06-22T04:25:12;4.63;;;4.10;;
69256;SDS011;56376;53.356;-1.748;2023-06-22T04:27:37;4.18;;;3.78;;
69256;SDS011;56376;53.356;-1.748;2023-06-22T04:30:05;4.15;;;3.67;;
69256;SDS011;56376;53.356;-1.748;2023-06-22T04:32:33;4.03;;;3.55;;
69256;SDS011;56376;53.356;-1.748;2023-06-22T04:35:00;4.30;;;3.90;;
69256;SDS011;56376;53.356;-1.748;2023-06-22T04:37:26;4.10;;;3.80;;
69256;SDS011;56376;53.356;-1.748;2023-06-22T04:39:52;4.22;;;3.65;;
69256;SDS011;56376;53.356;-1.748;2023-06-22T04:42:18;4.68;;;4.20;;
69256;SDS011;56376;53.356;-1.748;2023-06-22T04:44:43;4.65;;;4.00;;
69256;SDS011;56376;53.356;-1.748;2023-06-22T04:47:08;3.95;;;3.50;;
69256;SDS011;56376;53.356;-1.748;2023-06-22T04:49:34;4.47;;;4.07;;
69256;SDS011;56376;53.356;-1.748;2023-06-22T04:52:06;4.18;;;3.78;;
69256;SDS011;56376;53.356;-1.748;2023-06-22T04:54:33;4.57;;;3.90;;
69256;SDS011;56376;53.356;-1.748;2023-06-22T04:57:02;4.45;;;3.88;;
69256;SDS011;56376;53.356;-1.748;2023-06-22T04:59:29;4.68;;;3.60;;
69256;SDS011;56376;53.356;-1.748;2023-06-22T05:04:24;4.50;;;4.07;;
69256;SDS011;56376;53.356;-1.748;2023-06-22T05:06:50;4.40;;;3.83;;
69256;SDS011;56376;53.356;-1.748;2023-06-22T05:09:16;4.50;;;4.10;;
69256;SDS011;56376;53.356;-1.748;2023-06-22T05:11:42;5.05;;;4.10;;
69256;SDS011;56376;53.356;-1.748;2023-06-22T05:14:11;4.40;;;4.00;;
69256;SDS011;56376;53.356;-1.748;2023-06-22T05:16:37;4.43;;;4.03;;
69256;SDS011;56376;53.356;-1.748;2023-06-22T05:19:03;4.53;;;4.13;;
69256;SDS011;56376;53.356;-1.748;2023-06-22T05:21:29;4.35;;;3.80;;
69256;SDS011;56376;53.356;-1.748;2023-06-22T05:23:55;4.97;;;4.07;;
69256;SDS011;56376;53.356;-1.748;2023-06-22T05:26:28;4.35;;;3.95;;
69256;SDS011;56376;53.356;-1.748;2023-06-22T05:28:55;5.47;;;4.40;;
69256;SDS011;56376;53.356;-1.748;2023-06-22T05:31:21;5.38;;;4.63;;
69256;SDS011;56376;53.356;-1.748;2023-06-22T05:33:46;4.90;;;4.40;;
69256;SDS011;56376;53.356;-1.748;2023-06-22T05:36:13;4.90;;;4.10;;
69256;SDS011;56376;53.356;-1.748;2023-06-22T05:38:39;4.60;;;3.95;;
69256;SDS011;56376;53.356;-1.748;2023-06-22T05:41:05;4.72;;;4.30;;
69256;SDS011;56376;53.356;-1.748;2023-06-22T05:43:31;5.22;;;4.72;;
69256;SDS011;56376;53.356;-1.748;2023-06-22T05:45:57;6.88;;;4.97;;
69256;SDS011;56376;53.356;-1.748;2023-06-22T05:48:23;5.50;;;4.47;;
69256;SDS011;56376;53.356;-1.748;2023-06-22T05:50:48;5.07;;;4.32;;
69256;SDS011;56376;53.356;-1.748;2023-06-22T05:53:14;5.28;;;4.78;;
69256;SDS011;56376;53.356;-1.748;2023-06-22T05:55:39;5.13;;;4.72;;
69256;SDS011;56376;53.356;-1.748;2023-06-22T05:58:05;4.72;;;4.22;;
69256;SDS011;56376;53.356;-1.748;2023-06-22T06:00:31;5.93;;;5.32;;
69256;SDS011;56376;53.356;-1.748;2023-06-22T06:02:57;4.97;;;4.47;;
69256;SDS011;56376;53.356;-1.748;2023-06-22T06:05:28;5.65;;;4.55;;
69256;SDS011;56376;53.356;-1.748;2023-06-22T06:07:54;5.10;;;4.60;;
69256;SDS011;56376;53.356;-1.748;2023-06-22T06:10:19;4.68;;;4.28;;
69256;SDS011;56376;53.356;-1.748;2023-06-22T06:12:44;5.10;;;4.60;;
69256;SDS011;56376;53.356;-1.748;2023-06-22T06:15:10;5.10;;;4.60;;
69256;SDS011;56376;53.356;-1.748;2023-06-22T06:17:35;4.95;;;4.45;;
69256;SDS011;56376;53.356;-1.748;2023-06-22T06:20:01;5.40;;;4.90;;
69256;SDS011;56376;53.356;-1.748;2023-06-22T06:22:28;5.13;;;4.63;;
69256;SDS011;56376;53.356;-1.748;2023-06-22T06:24:53;4.82;;;4.40;;
69256;SDS011;56376;53.356;-1.748;2023-06-22T06:27:19;5.38;;;4.85;;
69256;SDS011;56376;53.356;-1.748;2023-06-22T06:29:44;5.15;;;4.65;;
69256;SDS011;56376;53.356;-1.748;2023-06-22T06:32:13;5.65;;;5.10;;
69256;SDS011;56376;53.356;-1.748;2023-06-22T06:34:38;5.00;;;4.50;;
69256;SDS011;56376;53.356;-1.748;2023-06-22T06:37:03;4.60;;;4.20;;
69256;SDS011;56376;53.356;-1.748;2023-06-22T06:39:29;4.28;;;3.88;;
69256;SDS011;56376;53.356;-1.748;2023-06-22T06:41:54;4.38;;;3.97;;
69256;SDS011;56376;53.356;-1.748;2023-06-22T06:44:20;4.88;;;4.40;;
69256;SDS011;56376;53.356;-1.748;2023-06-22T06:46:49;4.28;;;3.90;;
69256;SDS011;56376;53.356;-1.748;2023-06-22T06:49:15;4.68;;;4.22;;
69256;SDS011;56376;53.356;-1.748;2023-06-22T06:51:40;4.50;;;4.05;;
69256;SDS011;56376;53.356;-1.748;2023-06-22T06:54:05;4.50;;;4.10;;
69256;SDS011;56376;53.356;-1.748;2023-06-22T06:56:31;4.70;;;3.70;;
69256;SDS011;56376;53.356;-1.748;2023-06-22T06:58:58;4.80;;;4.30;;
69256;SDS011;56376;53.356;-1.748;2023-06-22T07:01:23;4.70;;;4.30;;
69256;SDS011;56376;53.356;-1.748;2023-06-22T07:03:49;4.45;;;4.03;;
69256;SDS011;56376;53.356;-1.748;2023-06-22T07:06:14;5.15;;;4.20;;
69256;SDS011;56376;53.356;-1.748;2023-06-22T07:08:41;4.35;;;3.95;;
69256;SDS011;56376;53.356;-1.748;2023-06-22T07:11:07;5.70;;;4.55;;
69256;SDS011;56376;53.356;-1.748;2023-06-22T07:13:33;4.50;;;4.10;;
69256;SDS011;56376;53.356;-1.748;2023-06-22T07:15:58;5.03;;;4.32;;
69256;SDS011;56376;53.356;-1.748;2023-06-22T07:18:24;4.95;;;4.15;;
69256;SDS011;56376;53.356;-1.748;2023-06-22T07:20:49;4.90;;;4.40;;
69256;SDS011;56376;53.356;-1.748;2023-06-22T07:23:14;3.97;;;3.67;;
69256;SDS011;56376;53.356;-1.748;2023-06-22T07:25:41;4.40;;;3.97;;
69256;SDS011;56376;53.356;-1.748;2023-06-22T07:28:06;4.18;;;3.78;;
69256;SDS011;56376;53.356;-1.748;2023-06-22T07:30:32;5.05;;;4.55;;
69256;SDS011;56376;53.356;-1.748;2023-06-22T07:32:59;5.22;;;4.03;;
69256;SDS011;56376;53.356;-1.748;2023-06-22T07:35:28;4.88;;;3.85;;
69256;SDS011;56376;53.356;-1.748;2023-06-22T07:37:54;4.97;;;4.35;;
69256;SDS011;56376;53.356;-1.748;2023-06-22T07:40:20;4.60;;;4.10;;
69256;SDS011;56376;53.356;-1.748;2023-06-22T07:42:45;3.88;;;3.58;;
69256;SDS011;56376;53.356;-1.748;2023-06-22T07:45:13;4.35;;;3.95;;
69256;SDS011;56376;53.356;-1.748;2023-06-22T07:47:38;4.05;;;3.65;;
69256;SDS011;56376;53.356;-1.748;2023-06-22T07:50:04;4.43;;;4.03;;
69256;SDS011;56376;53.356;-1.748;2023-06-22T07:52:30;4.90;;;3.55;;
69256;SDS011;56376;53.356;-1.748;2023-06-22T07:54:55;5.18;;;4.68;;
69256;SDS011;56376;53.356;-1.748;2023-06-22T07:57:21;5.82;;;4.15;;
69256;SDS011;56376;53.356;-1.748;2023-06-22T07:59:46;4.40;;;4.00;;
69256;SDS011;56376;53.356;-1.748;2023-06-22T08:02:12;6.45;;;4.43;;
69256;SDS011;56376;53.356;-1.748;2023-06-22T08:04:37;5.30;;;4.80;;
69256;SDS011;56376;53.356;-1.748;2023-06-22T08:07:04;4.97;;;4.30;;
69256;SDS011;56376;53.356;-1.748;2023-06-22T08:09:30;4.43;;;4.03;;
69256;SDS011;56376;53.356;-1.748;2023-06-22T08:11:58;4.63;;;3.75;;
69256;SDS011;56376;53.356;-1.748;2023-06-22T08:14:27;4.50;;;4.10;;
69256;SDS011;56376;53.356;-1.748;2023-06-22T08:16:54;4.55;;;4.15;;
69256;SDS011;56376;53.356;-1.748;2023-06-22T08:19:20;4.15;;;3.85;;
69256;SDS011;56376;53.356;-1.748;2023-06-22T08:21:45;4.20;;;3.80;;
69256;SDS011;56376;53.356;-1.748;2023-06-22T08:24:10;4.43;;;4.03;;
69256;SDS011;56376;53.356;-1.748;2023-06-22T08:26:36;4.20;;;3.80;;
69256;SDS011;56376;53.356;-1.748;2023-06-22T08:29:05;4.20;;;3.70;;
69256;SDS011;56376;53.356;-1.748;2023-06-22T08:31:31;4.18;;;3.88;;
69256;SDS011;56376;53.356;-1.748;2023-06-22T08:34:00;4.20;;;3.80;;
69256;SDS011;56376;53.356;-1.748;2023-06-22T08:36:25;4.32;;;3.92;;
69256;SDS011;56376;53.356;-1.748;2023-06-22T08:38:54;3.65;;;3.33;;
69256;SDS011;56376;53.356;-1.748;2023-06-22T08:41:22;4.07;;;3.78;;
69256;SDS011;56376;53.356;-1.748;2023-06-22T08:43:48;4.10;;;3.70;;
69256;SDS011;56376;53.356;-1.748;2023-06-22T08:46:13;4.55;;;4.10;;
69256;SDS011;56376;53.356;-1.748;2023-06-22T08:48:39;4.93;;;4.25;;
69256;SDS011;56376;53.356;-1.748;2023-06-22T08:51:04;4.88;;;4.00;;
69256;SDS011;56376;53.356;-1.748;2023-06-22T08:53:29;4.07;;;3.70;;
69256;SDS011;56376;53.356;-1.748;2023-06-22T08:55:55;4.05;;;3.65;;
69256;SDS011;56376;53.356;-1.748;2023-06-22T08:58:20;4.45;;;3.55;;
69256;SDS011;56376;53.356;-1.748;2023-06-22T09:00:46;3.83;;;3.53;;
69256;SDS011;56376;53.356;-1.748;2023-06-22T09:03:12;4.05;;;3.50;;
69256;SDS011;56376;53.356;-1.748;2023-06-22T09:05:38;3.80;;;3.50;;
69256;SDS011;56376;53.356;-1.748;2023-06-22T09:08:03;4.10;;;3.70;;
69256;SDS011;56376;53.356;-1.748;2023-06-22T09:10:29;3.58;;;3.28;;
69256;SDS011;56376;53.356;-1.748;2023-06-22T09:12:54;4.15;;;3.80;;
69256;SDS011;56376;53.356;-1.748;2023-06-22T09:15:19;3.72;;;3.42;;
69256;SDS011;56376;53.356;-1.748;2023-06-22T09:17:45;3.72;;;3.42;;
69256;SDS011;56376;53.356;-1.748;2023-06-22T09:20:11;3.47;;;3.00;;
69256;SDS011;56376;53.356;-1.748;2023-06-22T09:22:37;4.25;;;3.78;;
69256;SDS011;56376;53.356;-1.748;2023-06-22T09:25:03;5.07;;;4.57;;
69256;SDS011;56376;53.356;-1.748;2023-06-22T09:27:28;4.93;;;4.22;;
69256;SDS011;56376;53.356;-1.748;2023-06-22T09:29:53;5.72;;;4.82;;
69256;SDS011;56376;53.356;-1.748;2023-06-22T09:32:19;5.43;;;4.90;;
69256;SDS011;56376;53.356;-1.748;2023-06-22T09:34:44;5.25;;;4.75;;
69256;SDS011;56376;53.356;-1.748;2023-06-22T09:37:11;4.68;;;4.18;;
69256;SDS011;56376;53.356;-1.748;2023-06-22T09:39:36;4.60;;;4.20;;
69256;SDS011;56376;53.356;-1.748;2023-06-22T09:42:02;5.45;;;4.95;;
69256;SDS011;56376;53.356;-1.748;2023-06-22T09:44:27;5.15;;;4.65;;
69256;SDS011;56376;53.356;-1.748;2023-06-22T09:46:53;5.32;;;4.65;;
69256;SDS011;56376;53.356;-1.748;2023-06-22T09:49:18;5.38;;;4.88;;
69256;SDS011;56376;53.356;-1.748;2023-06-22T09:51:43;5.53;;;4.72;;
69256;SDS011;56376;53.356;-1.748;2023-06-22T09:54:09;4.85;;;4.35;;
69256;SDS011;56376;53.356;-1.748;2023-06-22T09:56:34;5.13;;;4.63;;
69256;SDS011;56376;53.356;-1.748;2023-06-22T09:59:00;4.78;;;4.28;;
69256;SDS011;56376;53.356;-1.748;2023-06-22T10:01:25;4.28;;;3.88;;
69256;SDS011;56376;53.356;-1.748;2023-06-22T10:03:52;4.68;;;4.28;;
69256;SDS011;56376;53.356;-1.748;2023-06-22T10:06:20;4.55;;;4.10;;
69256;SDS011;56376;53.356;-1.748;2023-06-22T10:08:46;4.95;;;4.45;;
69256;SDS011;56376;53.356;-1.748;2023-06-22T10:11:13;4.70;;;4.30;;
69256;SDS011;56376;53.356;-1.748;2023-06-22T10:13:38;5.22;;;4.60;;
69256;SDS011;56376;53.356;-1.748;2023-06-22T10:16:04;4.50;;;4.10;;
69256;SDS011;56376;53.356;-1.748;2023-06-22T10:18:29;5.95;;;5.35;;
69256;SDS011;56376;53.356;-1.748;2023-06-22T10:20:55;5.35;;;4.38;;
69256;SDS011;56376;53.356;-1.748;2023-06-22T10:23:21;4.68;;;4.28;;
69256;SDS011;56376;53.356;-1.748;2023-06-22T10:25:47;4.97;;;4.40;;
69256;SDS011;56376;53.356;-1.748;2023-06-22T10:28:13;5.25;;;4.05;;
69256;SDS011;56376;53.356;-1.748;2023-06-22T10:30:39;4.40;;;4.00;;
69256;SDS011;56376;53.356;-1.748;2023-06-22T10:33:06;4.55;;;4.15;;
69256;SDS011;56376;53.356;-1.748;2023-06-22T10:35:32;4.53;;;4.13;;
69256;SDS011;56376;53.356;-1.748;2023-06-22T10:37:58;4.50;;;4.10;;
69256;SDS011;56376;53.356;-1.748;2023-06-22T10:40:24;4.60;;;4.20;;
69256;SDS011;56376;53.356;-1.748;2023-06-22T10:42:55;5.20;;;4.70;;
69256;SDS011;56376;53.356;-1.748;2023-06-22T10:45:23;4.90;;;4.50;;
69256;SDS011;56376;53.356;-1.748;2023-06-22T10:47:48;5.43;;;4.47;;
69256;SDS011;56376;53.356;-1.748;2023-06-22T10:50:14;5.15;;;4.38;;
69256;SDS011;56376;53.356;-1.748;2023-06-22T10:52:39;7.50;;;4.40;;
69256;SDS011;56376;53.356;-1.748;2023-06-22T10:55:06;6.47;;;4.43;;
69256;SDS011;56376;53.356;-1.748;2023-06-22T10:57:33;5.32;;;4.82;;
69256;SDS011;56376;53.356;-1.748;2023-06-22T10:59:58;5.45;;;4.95;;
69256;SDS011;56376;53.356;-1.748;2023-06-22T11:02:24;5.18;;;4.68;;
69256;SDS011;56376;53.356;-1.748;2023-06-22T11:04:49;5.10;;;4.65;;
69256;SDS011;56376;53.356;-1.748;2023-06-22T11:07:15;4.38;;;3.97;;
69256;SDS011;56376;53.356;-1.748;2023-06-22T11:09:42;5.05;;;4.65;;
69256;SDS011;56376;53.356;-1.748;2023-06-22T11:12:08;4.75;;;4.35;;
69256;SDS011;56376;53.356;-1.748;2023-06-22T11:14:33;5.40;;;4.90;;
69256;SDS011;56376;53.356;-1.748;2023-06-22T11:16:59;4.50;;;4.10;;
69256;SDS011;56376;53.356;-1.748;2023-06-22T11:19:24;5.00;;;4.50;;
69256;SDS011;56376;53.356;-1.748;2023-06-22T11:21:50;5.03;;;4.55;;
69256;SDS011;56376;53.356;-1.748;2023-06-22T11:24:16;4.53;;;4.18;;
69256;SDS011;56376;53.356;-1.748;2023-06-22T11:26:41;5.03;;;4.63;;
69256;SDS011;56376;53.356;-1.748;2023-06-22T11:29:07;4.85;;;4.38;;
69256;SDS011;56376;53.356;-1.748;2023-06-22T11:31:33;4.85;;;4.28;;
69256;SDS011;56376;53.356;-1.748;2023-06-22T11:34:01;5.18;;;4.68;;
69256;SDS011;56376;53.356;-1.748;2023-06-22T11:36:27;4.78;;;4.38;;
69256;SDS011;56376;53.356;-1.748;2023-06-22T11:38:54;4.55;;;4.15;;
69256;SDS011;56376;53.356;-1.748;2023-06-22T11:41:19;4.63;;;4.03;;
69256;SDS011;56376;53.356;-1.748;2023-06-22T11:43:45;5.40;;;4.68;;
69256;SDS011;56376;53.356;-1.748;2023-06-22T11:46:10;5.13;;;4.65;;
69256;SDS011;56376;53.356;-1.748;2023-06-22T11:48:35;5.10;;;4.68;;
69256;SDS011;56376;53.356;-1.748;2023-06-22T11:51:01;6.03;;;5.53;;
69256;SDS011;56376;53.356;-1.748;2023-06-22T11:53:28;5.13;;;4.68;;
69256;SDS011;56376;53.356;-1.748;2023-06-22T11:55:54;5.75;;;5.25;;
69256;SDS011;56376;53.356;-1.748;2023-06-22T11:58:21;5.60;;;4.97;;
69256;SDS011;56376;53.356;-1.748;2023-06-22T12:00:47;6.53;;;5.05;;
69256;SDS011;56376;53.356;-1.748;2023-06-22T12:03:13;5.40;;;5.00;;
69256;SDS011;56376;53.356;-1.748;2023-06-22T12:05:39;4.90;;;4.50;;
69256;SDS011;56376;53.356;-1.748;2023-06-22T12:08:05;5.03;;;4.57;;
69256;SDS011;56376;53.356;-1.748;2023-06-22T12:10:31;5.18;;;4.68;;
69256;SDS011;56376;53.356;-1.748;2023-06-22T12:12:56;5.20;;;4.80;;
69256;SDS011;56376;53.356;-1.748;2023-06-22T12:15:23;4.90;;;4.50;;
69256;SDS011;56376;53.356;-1.748;2023-06-22T12:17:49;4.43;;;4.03;;
69256;SDS011;56376;53.356;-1.748;2023-06-22T12:20:14;5.20;;;4.78;;
69256;SDS011;56376;53.356;-1.748;2023-06-22T12:22:40;5.50;;;5.00;;
69256;SDS011;56376;53.356;-1.748;2023-06-22T12:25:06;4.28;;;3.88;;
69256;SDS011;56376;53.356;-1.748;2023-06-22T12:27:32;4.57;;;4.18;;
69256;SDS011;56376;53.356;-1.748;2023-06-22T12:29:58;5.70;;;5.20;;
69256;SDS011;56376;53.356;-1.748;2023-06-22T12:32:23;5.18;;;4.47;;
69256;SDS011;56376;53.356;-1.748;2023-06-22T12:34:49;5.43;;;4.93;;
69256;SDS011;56376;53.356;-1.748;2023-06-22T12:37:14;6.63;;;5.82;;
69256;SDS011;56376;53.356;-1.748;2023-06-22T12:39:40;6.25;;;5.65;;
69256;SDS011;56376;53.356;-1.748;2023-06-22T12:42:06;5.50;;;4.97;;
69256;SDS011;56376;53.356;-1.748;2023-06-22T12:44:33;5.13;;;4.70;;
69256;SDS011;56376;53.356;-1.748;2023-06-22T12:46:59;5.25;;;4.85;;
69256;SDS011;56376;53.356;-1.748;2023-06-22T12:49:24;5.60;;;5.10;;
69256;SDS011;56376;53.356;-1.748;2023-06-22T12:51:50;5.63;;;5.13;;
69256;SDS011;56376;53.356;-1.748;2023-06-22T12:54:15;5.05;;;4.55;;
69256;SDS011;56376;53.356;-1.748;2023-06-22T12:56:41;6.75;;;4.55;;
69256;SDS011;56376;53.356;-1.748;2023-06-22T12:59:08;5.20;;;4.18;;
69256;SDS011;56376;53.356;-1.748;2023-06-22T13:01:34;4.72;;;4.32;;
69256;SDS011;56376;53.356;-1.748;2023-06-22T13:03:59;4.70;;;4.30;;
69256;SDS011;56376;53.356;-1.748;2023-06-22T13:06:25;4.65;;;4.25;;
69256;SDS011;56376;53.356;-1.748;2023-06-22T13:08:50;4.57;;;4.18;;
69256;SDS011;56376;53.356;-1.748;2023-06-22T13:11:16;4.80;;;4.40;;
69256;SDS011;56376;53.356;-1.748;2023-06-22T13:13:41;4.70;;;4.30;;
69256;SDS011;56376;53.356;-1.748;2023-06-22T13:16:07;4.65;;;4.05;;
69256;SDS011;56376;53.356;-1.748;2023-06-22T13:18:32;4.78;;;3.75;;
69256;SDS011;56376;53.356;-1.748;2023-06-22T13:21:00;4.57;;;4.18;;
69256;SDS011;56376;53.356;-1.748;2023-06-22T13:23:26;4.40;;;4.00;;
69256;SDS011;56376;53.356;-1.748;2023-06-22T13:25:52;4.60;;;3.95;;
69256;SDS011;56376;53.356;-1.748;2023-06-22T13:28:17;3.95;;;3.65;;
69256;SDS011;56376;53.356;-1.748;2023-06-22T13:30:43;4.25;;;3.85;;
69256;SDS011;56376;53.356;-1.748;2023-06-22T13:33:11;4.40;;;4.00;;
69256;SDS011;56376;53.356;-1.748;2023-06-22T13:35:36;5.20;;;4.10;;
69256;SDS011;56376;53.356;-1.748;2023-06-22T13:38:02;3.92;;;3.63;;
69256;SDS011;56376;53.356;-1.748;2023-06-22T13:40:28;4.20;;;3.85;;
69256;SDS011;56376;53.356;-1.748;2023-06-22T13:42:53;3.97;;;3.60;;
69256;SDS011;56376;53.356;-1.748;2023-06-22T13:45:19;4.00;;;3.70;;
69256;SDS011;56376;53.356;-1.748;2023-06-22T13:47:45;4.00;;;3.60;;
69256;SDS011;56376;53.356;-1.748;2023-06-22T13:50:10;3.90;;;3.60;;
69256;SDS011;56376;53.356;-1.748;2023-06-22T13:52:37;4.10;;;3.70;;
69256;SDS011;56376;53.356;-1.748;2023-06-22T13:55:03;3.72;;;3.42;;
69256;SDS011;56376;53.356;-1.748;2023-06-22T13:57:29;4.70;;;4.30;;
69256;SDS011;56376;53.356;-1.748;2023-06-22T13:59:55;3.97;;;3.67;;
69256;SDS011;56376;53.356;-1.748;2023-06-22T14:02:20;4.75;;;4.35;;
69256;SDS011;56376;53.356;-1.748;2023-06-22T14:04:46;5.30;;;4.43;;
69256;SDS011;56376;53.356;-1.748;2023-06-22T14:07:11;7.05;;;4.63;;
69256;SDS011;56376;53.356;-1.748;2023-06-22T14:09:36;5.18;;;4.68;;
69256;SDS011;56376;53.356;-1.748;2023-06-22T14:12:08;5.85;;;5.30;;
69256;SDS011;56376;53.356;-1.748;2023-06-22T14:14:35;5.78;;;4.88;;
69256;SDS011;56376;53.356;-1.748;2023-06-22T14:17:00;4.80;;;4.40;;
69256;SDS011;56376;53.356;-1.748;2023-06-22T14:19:26;4.68;;;4.18;;
69256;SDS011;56376;53.356;-1.748;2023-06-22T14:21:51;4.65;;;4.22;;
69256;SDS011;56376;53.356;-1.748;2023-06-22T14:24:17;4.75;;;4.18;;
69256;SDS011;56376;53.356;-1.748;2023-06-22T14:26:42;5.20;;;4.70;;
69256;SDS011;56376;53.356;-1.748;2023-06-22T14:29:07;4.88;;;4.47;;
69256;SDS011;56376;53.356;-1.748;2023-06-22T14:31:33;4.68;;;4.28;;
69256;SDS011;56376;53.356;-1.748;2023-06-22T14:33:58;5.00;;;4.50;;
69256;SDS011;56376;53.356;-1.748;2023-06-22T14:36:24;4.72;;;4.32;;
69256;SDS011;56376;53.356;-1.748;2023-06-22T14:38:49;7.10;;;6.40;;
69256;SDS011;56376;53.356;-1.748;2023-06-22T14:41:15;6.35;;;5.70;;